createdAt,value
2022-07-29T00:00:21.268Z,14.50
2022-07-29T00:02:25.988Z,14.50
2022-07-29T00:04:28.190Z,15.00
2022-07-29T00:06:30.420Z,14.50
2022-07-29T00:08:32.431Z,14.90
2022-07-29T00:10:34.705Z,14.50
2022-07-29T00:12:38.120Z,14.60
2022-07-29T00:14:40.252Z,14.60
2022-07-29T00:16:45.322Z,14.60
2022-07-29T00:18:47.555Z,14.60
2022-07-29T00:20:52.524Z,14.70
2022-07-29T00:22:54.722Z,14.60
2022-07-29T00:24:56.855Z,14.60
2022-07-29T00:26:58.823Z,14.60
2022-07-29T00:29:32.518Z,14.60
2022-07-29T00:31:24.848Z,14.70
2022-07-29T00:33:26.937Z,14.60
2022-07-29T00:35:47.363Z,14.60
2022-07-29T00:37:49.414Z,14.60
2022-07-29T00:39:51.527Z,14.70
2022-07-29T00:41:53.579Z,14.60
2022-07-29T00:43:58.616Z,14.60
2022-07-29T00:46:00.656Z,14.60
2022-07-29T00:48:04.433Z,14.70
2022-07-29T00:50:08.611Z,14.70
2022-07-29T00:52:12.063Z,14.60
2022-07-29T00:54:14.410Z,14.70
2022-07-29T00:56:16.638Z,14.60
2022-07-29T00:58:18.735Z,14.60
2022-07-29T01:00:27.740Z,14.60
2022-07-29T01:02:29.790Z,14.80
2022-07-29T01:04:32.668Z,14.60
2022-07-29T01:06:35.606Z,14.60
2022-07-29T01:08:38.172Z,14.60
2022-07-29T01:10:41.971Z,14.60
2022-07-29T01:12:46.842Z,14.60
2022-07-29T01:14:51.582Z,14.60
2022-07-29T01:17:03.644Z,14.60
2022-07-29T01:19:31.218Z,14.70
2022-07-29T01:21:55.588Z,14.60
2022-07-29T01:24:00.394Z,14.90
2022-07-29T01:26:27.372Z,14.60
2022-07-29T01:28:47.717Z,14.60
2022-07-29T01:30:52.357Z,14.60
2022-07-29T01:33:01.200Z,14.60
2022-07-29T01:35:21.570Z,14.60
2022-07-29T01:37:30.795Z,14.60
2022-07-29T01:39:37.163Z,14.60
2022-07-29T01:41:45.279Z,14.60
2022-07-29T01:43:57.195Z,15.20
2022-07-29T01:46:05.079Z,14.60
2022-07-29T01:48:16.552Z,14.60
2022-07-29T01:50:21.202Z,14.60
2022-07-29T01:52:32.116Z,14.60
2022-07-29T01:54:47.758Z,14.60
2022-07-29T01:56:54.567Z,14.60
2022-07-29T01:58:58.161Z,14.60
2022-07-29T02:01:01.562Z,14.60
2022-07-29T02:03:08.513Z,14.60
2022-07-29T02:05:18.662Z,14.70
2022-07-29T02:07:24.172Z,14.70
2022-07-29T02:09:30.560Z,14.70
2022-07-29T02:11:35.579Z,14.70
2022-07-29T02:13:38.571Z,14.70
2022-07-29T02:15:42.779Z,14.70
2022-07-29T02:17:52.253Z,14.70
2022-07-29T02:19:57.982Z,14.70
2022-07-29T02:22:01.758Z,14.70
2022-07-29T02:24:04.929Z,14.70
2022-07-29T02:26:09.921Z,14.70
2022-07-29T02:28:12.533Z,14.70
2022-07-29T02:30:14.948Z,14.70
2022-07-29T02:32:22.673Z,14.80
2022-07-29T02:34:26.292Z,14.70
2022-07-29T02:36:30.880Z,14.70
2022-07-29T02:38:52.615Z,14.70
2022-07-29T02:40:56.309Z,15.00
2022-07-29T02:42:58.697Z,14.80
2022-07-29T02:45:00.733Z,14.80
2022-07-29T02:47:12.602Z,14.80
2022-07-29T02:50:02.737Z,14.70
2022-07-29T02:52:06.335Z,14.80
2022-07-29T02:54:10.177Z,14.80
2022-07-29T02:56:15.722Z,14.80
2022-07-29T02:58:30.607Z,14.80
2022-07-29T03:00:36.496Z,14.70
2022-07-29T03:02:42.090Z,14.70
2022-07-29T03:04:45.635Z,14.80
2022-07-29T03:06:49.686Z,14.70
2022-07-29T03:08:59.178Z,14.70
2022-07-29T03:11:02.477Z,14.80
2022-07-29T03:13:06.508Z,14.80
2022-07-29T03:15:09.594Z,14.70
2022-07-29T03:17:12.378Z,14.70
2022-07-29T03:19:18.275Z,14.80
2022-07-29T03:21:20.376Z,14.70
2022-07-29T03:23:24.978Z,14.70
2022-07-29T03:25:28.325Z,14.80
2022-07-29T03:27:30.394Z,14.70
2022-07-29T03:29:34.376Z,14.70
2022-07-29T03:31:36.900Z,14.80
2022-07-29T03:33:39.457Z,14.80
2022-07-29T03:35:42.606Z,14.70
2022-07-29T03:37:46.414Z,14.70
2022-07-29T03:39:49.338Z,14.80
2022-07-29T03:41:55.345Z,14.80
2022-07-29T03:43:59.157Z,14.70
2022-07-29T03:46:05.845Z,14.70
2022-07-29T03:48:16.295Z,14.80
2022-07-29T03:50:20.571Z,14.70
2022-07-29T03:52:22.928Z,14.70
2022-07-29T03:54:25.218Z,14.70
2022-07-29T03:56:29.094Z,14.70
2022-07-29T03:58:32.639Z,14.70
2022-07-29T04:00:35.807Z,14.70
2022-07-29T04:02:41.171Z,14.80
2022-07-29T04:04:43.170Z,15.00
2022-07-29T04:06:48.190Z,14.70
2022-07-29T04:08:50.400Z,14.70
2022-07-29T04:10:53.496Z,14.70
2022-07-29T04:12:55.531Z,14.70
2022-07-29T04:14:57.505Z,15.10
2022-07-29T04:17:00.172Z,14.70
2022-07-29T04:19:02.239Z,14.80
2022-07-29T04:21:05.101Z,14.70
2022-07-29T04:23:07.146Z,14.70
2022-07-29T04:25:10.056Z,14.70
2022-07-29T04:27:12.140Z,14.70
2022-07-29T04:29:15.734Z,14.80
2022-07-29T04:31:25.278Z,14.80
2022-07-29T04:33:27.858Z,14.80
2022-07-29T04:35:38.327Z,14.80
2022-07-29T04:37:41.883Z,14.80
2022-07-29T04:39:43.911Z,14.80
2022-07-29T04:41:45.964Z,14.80
2022-07-29T04:43:48.469Z,14.80
2022-07-29T04:45:50.715Z,14.90
2022-07-29T04:47:52.729Z,14.80
2022-07-29T04:49:54.729Z,14.80
2022-07-29T04:51:59.580Z,14.90
2022-07-29T04:54:02.022Z,14.90
2022-07-29T04:56:04.391Z,14.90
2022-07-29T04:58:06.449Z,14.90
2022-07-29T05:00:11.741Z,14.90
2022-07-29T05:02:13.938Z,14.90
2022-07-29T05:04:16.379Z,14.90
2022-07-29T05:06:19.063Z,14.90
2022-07-29T05:08:21.307Z,14.90
2022-07-29T05:10:23.755Z,14.90
2022-07-29T05:12:26.282Z,15.00
2022-07-29T05:14:28.290Z,15.00
2022-07-29T05:16:30.502Z,15.00
2022-07-29T05:18:32.752Z,15.00
2022-07-29T05:20:38.124Z,15.00
2022-07-29T05:22:40.143Z,15.00
2022-07-29T05:24:42.409Z,15.10
2022-07-29T05:26:44.663Z,15.10
2022-07-29T05:28:46.668Z,15.10
2022-07-29T05:30:49.464Z,15.10
2022-07-29T05:32:54.634Z,15.10
2022-07-29T05:34:56.723Z,15.50
2022-07-29T05:36:58.977Z,15.20
2022-07-29T05:39:01.873Z,15.20
2022-07-29T05:41:05.145Z,15.30
2022-07-29T05:43:07.083Z,15.30
2022-07-29T05:45:09.671Z,15.30
2022-07-29T05:47:12.651Z,15.40
2022-07-29T05:49:23.153Z,15.40
2022-07-29T05:51:30.993Z,15.50
2022-07-29T05:53:33.109Z,15.40
2022-07-29T05:55:35.193Z,16.10
2022-07-29T05:57:40.786Z,15.50
2022-07-29T05:59:42.770Z,15.60
2022-07-29T06:01:44.813Z,15.60
2022-07-29T06:03:47.114Z,15.60
2022-07-29T06:05:49.194Z,15.80
2022-07-29T06:07:51.749Z,15.70
2022-07-29T06:09:53.815Z,15.70
2022-07-29T06:11:55.943Z,15.70
2022-07-29T06:13:58.020Z,15.80
2022-07-29T06:16:00.112Z,15.80
2022-07-29T06:18:02.625Z,15.80
2022-07-29T06:20:07.453Z,15.80
2022-07-29T06:22:09.689Z,15.90
2022-07-29T06:24:13.836Z,15.90
2022-07-29T06:26:15.993Z,16.00
2022-07-29T06:28:18.194Z,16.10
2022-07-29T06:30:20.353Z,16.10
2022-07-29T06:32:22.915Z,16.20
2022-07-29T06:34:29.538Z,16.20
2022-07-29T06:36:37.702Z,16.30
2022-07-29T06:38:42.057Z,16.30
2022-07-29T06:41:06.277Z,16.30
2022-07-29T06:43:08.233Z,16.40
2022-07-29T06:45:11.447Z,16.90
2022-07-29T06:47:13.381Z,16.50
2022-07-29T06:49:15.649Z,16.50
2022-07-29T06:51:22.486Z,16.50
2022-07-29T06:53:25.741Z,16.60
2022-07-29T06:55:27.827Z,16.60
2022-07-29T06:57:29.846Z,16.70
2022-07-29T06:59:35.564Z,16.70
2022-07-29T07:01:39.923Z,16.80
2022-07-29T07:03:45.013Z,16.90
2022-07-29T07:05:47.877Z,17.00
2022-07-29T07:07:52.479Z,17.20
2022-07-29T07:09:54.856Z,17.10
2022-07-29T07:11:56.850Z,17.20
2022-07-29T07:14:03.594Z,17.30
2022-07-29T07:16:06.572Z,17.20
2022-07-29T07:18:08.727Z,17.30
2022-07-29T07:20:11.057Z,17.30
2022-07-29T07:22:13.101Z,17.30
2022-07-29T07:24:15.384Z,17.30
2022-07-29T07:26:17.675Z,17.30
2022-07-29T07:28:24.846Z,17.30
2022-07-29T07:30:28.243Z,17.40
2022-07-29T07:32:30.382Z,17.40
2022-07-29T07:34:32.428Z,17.50
2022-07-29T07:36:34.502Z,17.50
2022-07-29T07:38:45.707Z,17.50
2022-07-29T07:40:50.268Z,17.60
2022-07-29T07:42:52.283Z,17.60
2022-07-29T07:45:12.544Z,17.60
2022-07-29T07:47:20.698Z,17.70
2022-07-29T07:49:24.886Z,17.70
2022-07-29T07:51:26.970Z,17.80
2022-07-29T07:53:30.767Z,17.90
2022-07-29T07:55:53.437Z,17.90
2022-07-29T07:57:58.817Z,18.20
2022-07-29T08:00:00.904Z,18.00
2022-07-29T08:02:03.070Z,18.00
2022-07-29T08:04:05.342Z,18.50
2022-07-29T08:06:07.386Z,18.00
2022-07-29T08:08:09.423Z,18.00
2022-07-29T08:10:11.467Z,18.00
2022-07-29T08:12:13.737Z,18.60
2022-07-29T08:14:15.989Z,18.10
2022-07-29T08:16:18.182Z,18.10
2022-07-29T08:18:20.271Z,18.10
2022-07-29T08:20:22.263Z,18.10
2022-07-29T08:22:24.332Z,18.20
2022-07-29T08:24:44.583Z,18.20
2022-07-29T08:26:46.774Z,18.20
2022-07-29T08:28:51.400Z,18.20
2022-07-29T08:30:53.658Z,18.30
2022-07-29T08:32:58.612Z,18.40
2022-07-29T08:35:01.529Z,18.50
2022-07-29T08:37:03.724Z,18.50
2022-07-29T08:39:06.038Z,18.60
2022-07-29T08:41:08.940Z,18.50
2022-07-29T08:43:11.031Z,18.40
2022-07-29T08:45:15.968Z,18.40
2022-07-29T08:47:18.274Z,18.40
2022-07-29T08:49:20.542Z,18.40
2022-07-29T08:51:23.251Z,18.40
2022-07-29T08:53:28.072Z,18.40
2022-07-29T08:55:30.771Z,18.40
2022-07-29T08:57:34.788Z,18.50
2022-07-29T08:59:43.512Z,18.50
2022-07-29T09:01:46.992Z,18.60
2022-07-29T09:03:50.621Z,18.70
2022-07-29T09:05:53.399Z,18.70
2022-07-29T09:07:56.439Z,18.80
2022-07-29T09:09:58.475Z,18.80
2022-07-29T09:12:01.061Z,18.80
2022-07-29T09:14:03.940Z,18.90
2022-07-29T09:16:09.389Z,19.00
2022-07-29T09:18:19.580Z,19.00
2022-07-29T09:20:51.290Z,18.90
2022-07-29T09:22:54.625Z,19.20
2022-07-29T09:24:56.590Z,19.00
2022-07-29T09:26:58.769Z,19.10
2022-07-29T09:29:18.902Z,19.10
2022-07-29T09:31:34.285Z,19.10
2022-07-29T09:33:41.486Z,19.10
2022-07-29T09:35:43.729Z,19.00
2022-07-29T09:38:10.570Z,19.00
2022-07-29T09:40:15.163Z,19.00
2022-07-29T09:42:29.312Z,19.00
2022-07-29T09:44:45.517Z,18.80
2022-07-29T09:46:59.891Z,18.80
2022-07-29T09:49:13.753Z,18.80
2022-07-29T09:51:24.249Z,18.90
2022-07-29T09:53:31.586Z,18.90
2022-07-29T09:55:51.731Z,19.00
2022-07-29T09:57:54.774Z,19.00
2022-07-29T10:00:02.387Z,19.00
2022-07-29T10:02:17.729Z,19.10
2022-07-29T10:04:37.149Z,19.10
2022-07-29T10:07:03.771Z,19.20
2022-07-29T10:09:15.149Z,19.20
2022-07-29T10:11:18.711Z,19.30
2022-07-29T10:13:20.805Z,19.30
2022-07-29T10:15:25.035Z,19.30
2022-07-29T10:17:27.114Z,19.40
2022-07-29T10:19:32.930Z,19.40
2022-07-29T10:21:36.753Z,19.40
2022-07-29T10:23:47.150Z,19.50
2022-07-29T10:25:49.625Z,19.50
2022-07-29T10:27:52.679Z,19.50
2022-07-29T10:29:55.409Z,19.50
2022-07-29T10:32:20.633Z,19.60
2022-07-29T10:34:54.730Z,19.60
2022-07-29T10:37:29.387Z,19.60
2022-07-29T10:40:31.644Z,19.60
2022-07-29T10:42:42.442Z,19.50
2022-07-29T10:44:45.575Z,19.50
2022-07-29T10:46:54.509Z,19.50
2022-07-29T10:49:16.975Z,19.50
2022-07-29T10:51:20.447Z,19.60
2022-07-29T10:53:46.161Z,19.70
2022-07-29T10:55:51.443Z,19.80
2022-07-29T10:58:15.921Z,19.80
2022-07-29T11:00:30.033Z,19.90
2022-07-29T11:02:41.430Z,19.80
2022-07-29T11:04:44.451Z,19.90
2022-07-29T11:07:04.485Z,19.80
2022-07-29T11:09:25.810Z,19.80
2022-07-29T11:14:04.071Z,19.80
2022-07-29T11:16:07.792Z,19.90
2022-07-29T11:18:15.170Z,19.80
2022-07-29T11:20:42.805Z,19.80
2022-07-29T11:22:47.258Z,19.90
2022-07-29T11:25:16.792Z,19.90
2022-07-29T11:27:23.727Z,20.00
2022-07-29T11:29:32.519Z,20.10
2022-07-29T11:31:44.960Z,20.20
2022-07-29T11:33:55.871Z,20.30
2022-07-29T11:36:16.781Z,20.40
2022-07-29T11:38:28.599Z,20.50
2022-07-29T11:40:30.934Z,20.70
2022-07-29T11:42:36.817Z,21.00
2022-07-29T11:45:42.141Z,21.10
2022-07-29T11:47:39.478Z,21.30
2022-07-29T11:49:46.735Z,21.50
2022-07-29T11:51:53.837Z,21.60
2022-07-29T11:54:02.501Z,21.70
2022-07-29T11:56:10.494Z,21.90
2022-07-29T11:58:13.214Z,21.90
2022-07-29T12:00:43.722Z,22.00
2022-07-29T12:02:48.564Z,22.00
2022-07-29T12:04:55.801Z,22.00
2022-07-29T12:07:00.531Z,22.00
2022-07-29T12:09:11.213Z,22.00
2022-07-29T12:11:20.375Z,22.10
2022-07-29T12:13:37.600Z,22.30
2022-07-29T12:15:47.089Z,22.20
2022-07-29T12:17:49.705Z,22.30
2022-07-29T12:19:51.737Z,22.40
2022-07-29T12:21:59.391Z,22.50
2022-07-29T12:24:09.038Z,22.50
2022-07-29T12:26:21.826Z,22.60
2022-07-29T12:28:39.553Z,22.60
2022-07-29T12:30:45.810Z,22.70
2022-07-29T12:32:54.066Z,22.70
2022-07-29T12:34:56.029Z,22.70
2022-07-29T12:36:58.284Z,22.80
2022-07-29T12:39:00.553Z,22.80
2022-07-29T12:41:02.697Z,22.80
2022-07-29T12:43:13.316Z,22.80
2022-07-29T12:45:17.585Z,22.90
2022-07-29T12:47:20.916Z,23.00
2022-07-29T12:49:24.094Z,23.00
2022-07-29T12:51:37.688Z,23.00
2022-07-29T12:53:40.507Z,23.00
2022-07-29T12:55:45.529Z,23.00
2022-07-29T12:57:49.092Z,23.00
2022-07-29T13:00:14.827Z,23.10
2022-07-29T13:02:23.828Z,23.20
2022-07-29T13:04:27.907Z,23.30
2022-07-29T13:06:38.242Z,23.30
2022-07-29T13:08:58.386Z,23.50
2022-07-29T13:11:00.471Z,23.50
2022-07-29T13:13:03.620Z,23.60
2022-07-29T13:15:17.084Z,23.70
2022-07-29T13:17:22.410Z,23.90
2022-07-29T13:19:41.609Z,24.20
2022-07-29T13:21:43.621Z,24.30
2022-07-29T13:23:45.569Z,24.40
2022-07-29T13:25:47.603Z,24.60
2022-07-29T13:27:49.557Z,24.70
2022-07-29T13:29:57.437Z,24.90
2022-07-29T13:31:59.814Z,25.10
2022-07-29T13:34:02.283Z,25.10
2022-07-29T13:36:04.406Z,25.20
2022-07-29T13:38:06.405Z,25.20
2022-07-29T13:40:10.149Z,25.20
2022-07-29T13:42:14.299Z,25.30
2022-07-29T13:44:17.073Z,25.30
2022-07-29T13:46:19.223Z,25.20
2022-07-29T13:48:23.524Z,25.20
2022-07-29T13:50:25.562Z,25.20
2022-07-29T13:52:27.610Z,25.20
2022-07-29T13:54:29.737Z,25.30
2022-07-29T13:56:31.868Z,25.30
2022-07-29T13:58:34.683Z,25.30
2022-07-29T14:00:36.637Z,25.30
2022-07-29T14:02:39.473Z,25.30
2022-07-29T14:04:41.583Z,25.40
2022-07-29T14:06:43.797Z,25.30
2022-07-29T14:08:46.037Z,25.40
2022-07-29T14:10:48.017Z,25.30
2022-07-29T14:12:53.280Z,25.30
2022-07-29T14:14:55.216Z,25.30
2022-07-29T14:16:57.335Z,25.30
2022-07-29T14:18:59.384Z,25.30
2022-07-29T14:21:01.709Z,25.30
2022-07-29T14:23:03.774Z,25.30
2022-07-29T14:25:13.656Z,25.30
2022-07-29T14:27:17.343Z,25.30
2022-07-29T14:29:19.476Z,25.40
2022-07-29T14:31:21.638Z,25.40
2022-07-29T14:33:23.633Z,25.50
2022-07-29T14:35:25.797Z,25.40
2022-07-29T14:37:28.798Z,25.40
2022-07-29T14:39:43.389Z,25.30
2022-07-29T14:41:48.060Z,25.30
2022-07-29T14:43:50.149Z,25.20
2022-07-29T14:45:57.224Z,25.10
2022-07-29T14:48:12.461Z,25.00
2022-07-29T14:50:23.530Z,25.00
2022-07-29T14:52:33.962Z,24.90
2022-07-29T14:54:36.016Z,24.90
2022-07-29T14:56:46.666Z,24.90
2022-07-29T14:58:51.727Z,24.90
2022-07-29T15:00:55.743Z,24.90
2022-07-29T15:03:02.605Z,24.90
2022-07-29T15:05:06.220Z,24.90
2022-07-29T15:07:08.464Z,25.00
2022-07-29T15:09:10.488Z,25.00
2022-07-29T15:11:12.468Z,24.90
2022-07-29T15:13:14.437Z,24.90
2022-07-29T15:15:16.464Z,25.00
2022-07-29T15:17:18.417Z,25.00
2022-07-29T15:19:21.567Z,25.00
2022-07-29T15:21:23.546Z,25.10
2022-07-29T15:23:25.674Z,25.00
2022-07-29T15:25:27.978Z,25.00
2022-07-29T15:27:30.422Z,24.90
2022-07-29T15:29:32.469Z,24.90
2022-07-29T15:31:34.561Z,24.90
2022-07-29T15:33:36.687Z,24.90
2022-07-29T15:35:42.607Z,24.90
2022-07-29T15:37:48.726Z,24.90
2022-07-29T15:39:51.583Z,24.90
2022-07-29T15:41:53.609Z,25.00
2022-07-29T15:43:58.360Z,24.90
2022-07-29T15:46:23.108Z,24.90
2022-07-29T15:48:25.109Z,24.90
2022-07-29T15:50:27.450Z,24.90
2022-07-29T15:52:29.766Z,24.90
2022-07-29T15:54:31.776Z,24.90
2022-07-29T15:56:33.898Z,24.90
2022-07-29T15:58:35.933Z,24.90
2022-07-29T16:00:41.346Z,24.90
2022-07-29T16:02:44.060Z,25.00
2022-07-29T16:04:46.153Z,24.90
2022-07-29T16:06:48.893Z,24.90
2022-07-29T16:08:50.927Z,25.00
2022-07-29T16:10:52.962Z,24.90
2022-07-29T16:12:55.027Z,24.90
2022-07-29T16:14:57.210Z,24.90
2022-07-29T16:17:03.930Z,24.90
2022-07-29T16:19:09.365Z,24.90
2022-07-29T16:21:12.454Z,24.70
2022-07-29T16:23:15.788Z,24.60
2022-07-29T16:25:18.038Z,24.60
2022-07-29T16:27:24.940Z,24.50
2022-07-29T16:29:26.882Z,24.50
2022-07-29T16:31:31.321Z,24.40
2022-07-29T16:33:54.379Z,24.40
2022-07-29T16:35:55.484Z,24.40
2022-07-29T16:37:58.082Z,24.30
2022-07-29T16:40:00.242Z,24.30
2022-07-29T16:42:05.336Z,24.30
2022-07-29T16:44:07.616Z,24.20
2022-07-29T16:46:18.387Z,24.10
2022-07-29T16:48:21.017Z,24.00
2022-07-29T16:50:25.809Z,24.00
2022-07-29T16:52:28.318Z,23.90
2022-07-29T16:54:36.318Z,23.80
2022-07-29T16:56:38.339Z,23.70
2022-07-29T16:58:43.742Z,23.70
2022-07-29T17:00:45.942Z,23.70
2022-07-29T17:02:48.291Z,24.00
2022-07-29T17:04:50.305Z,24.20
2022-07-29T17:06:54.436Z,24.50
2022-07-29T17:08:56.880Z,24.60
2022-07-29T17:11:01.214Z,24.70
2022-07-29T17:13:03.221Z,24.80
2022-07-29T17:15:07.447Z,24.80
2022-07-29T17:17:13.551Z,24.80
2022-07-29T17:19:16.261Z,24.70
2022-07-29T17:21:18.349Z,24.50
2022-07-29T17:23:20.310Z,24.30
2022-07-29T17:25:22.473Z,24.10
2022-07-29T17:27:24.455Z,23.80
2022-07-29T17:29:26.658Z,23.50
2022-07-29T17:31:28.816Z,23.40
2022-07-29T17:33:30.815Z,23.20
2022-07-29T17:35:51.616Z,23.20
2022-07-29T17:37:53.933Z,23.10
2022-07-29T17:40:00.068Z,23.00
2022-07-29T17:42:05.671Z,22.90
2022-07-29T17:44:09.449Z,22.80
2022-07-29T17:46:12.414Z,22.70
2022-07-29T17:48:14.425Z,22.60
2022-07-29T17:50:16.371Z,22.70
2022-07-29T17:52:18.789Z,23.00
2022-07-29T17:54:20.807Z,23.30
2022-07-29T17:56:22.931Z,23.60
2022-07-29T17:58:25.677Z,23.60
2022-07-29T18:00:27.771Z,23.50
2022-07-29T18:02:29.899Z,23.40
2022-07-29T18:04:32.024Z,23.30
2022-07-29T18:06:34.265Z,23.20
2022-07-29T18:08:37.094Z,23.20
2022-07-29T18:10:39.139Z,23.10
2022-07-29T18:12:41.111Z,23.00
2022-07-29T18:14:43.069Z,23.00
2022-07-29T18:16:45.172Z,22.90
2022-07-29T18:18:47.413Z,22.90
2022-07-29T18:20:49.647Z,22.70
2022-07-29T18:22:51.698Z,22.60
2022-07-29T18:24:53.735Z,22.50
2022-07-29T18:26:56.731Z,22.50
2022-07-29T18:28:58.946Z,22.40
2022-07-29T18:31:02.692Z,22.20
2022-07-29T18:33:28.278Z,22.10
2022-07-29T18:35:30.329Z,22.10
2022-07-29T18:38:01.194Z,21.90
2022-07-29T18:39:57.042Z,21.90
2022-07-29T18:42:01.557Z,21.80
2022-07-29T18:44:03.683Z,21.70
2022-07-29T18:46:06.784Z,21.60
2022-07-29T18:48:12.732Z,21.50
2022-07-29T18:50:16.106Z,21.50
2022-07-29T18:52:18.131Z,21.30
2022-07-29T18:54:20.211Z,21.30
2022-07-29T18:56:22.385Z,21.20
2022-07-29T18:58:24.409Z,21.00
2022-07-29T19:00:27.658Z,21.00
2022-07-29T19:02:29.826Z,21.00
2022-07-29T19:04:31.920Z,20.90
2022-07-29T19:06:33.960Z,20.70
2022-07-29T19:08:36.102Z,20.70
2022-07-29T19:10:38.100Z,20.60
2022-07-29T19:12:40.070Z,20.60
2022-07-29T19:14:42.403Z,20.60
2022-07-29T19:16:44.341Z,20.50
2022-07-29T19:18:47.470Z,20.50
2022-07-29T19:20:49.412Z,20.50
2022-07-29T19:22:51.426Z,20.40
2022-07-29T19:24:53.450Z,20.40
2022-07-29T19:26:56.598Z,20.30
2022-07-29T19:28:58.854Z,20.30
2022-07-29T19:31:03.917Z,20.20
2022-07-29T19:33:12.740Z,20.10
2022-07-29T19:35:32.945Z,20.10
2022-07-29T19:37:36.171Z,20.00
2022-07-29T19:39:38.205Z,19.90
2022-07-29T19:41:40.222Z,19.90
2022-07-29T19:43:51.239Z,19.80
2022-07-29T19:45:57.147Z,19.70
2022-07-29T19:48:01.733Z,19.70
2022-07-29T19:50:05.071Z,19.70
2022-07-29T19:52:07.126Z,19.60
2022-07-29T19:54:09.403Z,19.60
2022-07-29T19:56:13.867Z,19.60
2022-07-29T19:58:17.203Z,19.60
2022-07-29T20:00:21.054Z,19.50
2022-07-29T20:02:25.871Z,19.50
2022-07-29T20:04:27.986Z,19.40
2022-07-29T20:06:29.987Z,19.30
2022-07-29T20:08:32.141Z,19.30
2022-07-29T20:10:34.591Z,19.20
2022-07-29T20:12:38.144Z,19.20
2022-07-29T20:14:40.300Z,19.10
2022-07-29T20:16:42.378Z,19.00
2022-07-29T20:18:44.389Z,19.00
2022-07-29T20:20:47.852Z,18.90
2022-07-29T20:22:49.897Z,18.80
2022-07-29T20:24:51.806Z,18.80
2022-07-29T20:26:53.822Z,18.80
2022-07-29T20:28:58.676Z,18.70
2022-07-29T20:31:00.662Z,18.70
2022-07-29T20:33:02.777Z,18.70
2022-07-29T20:35:05.612Z,18.70
2022-07-29T20:37:16.736Z,18.70
2022-07-29T20:39:21.179Z,18.60
2022-07-29T20:41:23.477Z,18.50
2022-07-29T20:43:26.319Z,18.50
2022-07-29T20:45:28.353Z,18.40
2022-07-29T20:47:31.351Z,18.40
2022-07-29T20:49:33.346Z,18.40
2022-07-29T20:51:44.092Z,18.40
2022-07-29T20:53:46.294Z,18.30
2022-07-29T20:55:51.387Z,18.30
2022-07-29T20:57:53.629Z,18.20
2022-07-29T20:59:55.588Z,18.20
2022-07-29T21:01:57.622Z,18.10
2022-07-29T21:04:03.413Z,18.10
2022-07-29T21:06:05.515Z,18.00
2022-07-29T21:08:07.470Z,17.90
2022-07-29T21:10:09.717Z,17.80
2022-07-29T21:12:11.710Z,17.70
2022-07-29T21:14:33.050Z,17.90
2022-07-29T21:16:35.094Z,17.60
2022-07-29T21:18:37.704Z,17.50
2022-07-29T21:20:39.637Z,17.40
2022-07-29T21:22:43.043Z,17.40
2022-07-29T21:24:45.227Z,17.30
2022-07-29T21:26:54.498Z,17.30
2022-07-29T21:29:07.024Z,17.30
2022-07-29T21:31:12.556Z,17.20
2022-07-29T21:33:14.559Z,17.20
2022-07-29T21:35:35.911Z,17.20
2022-07-29T21:37:39.610Z,17.20
2022-07-29T21:39:41.563Z,17.20
2022-07-29T21:41:43.480Z,17.10
2022-07-29T21:43:46.448Z,17.20
2022-07-29T21:45:51.681Z,17.00
2022-07-29T21:47:53.786Z,16.90
2022-07-29T21:49:55.767Z,17.00
2022-07-29T21:51:58.523Z,16.90
2022-07-29T21:54:01.812Z,17.00
2022-07-29T21:56:03.994Z,17.00
2022-07-29T21:58:08.531Z,17.00
2022-07-29T22:00:15.738Z,16.90
2022-07-29T22:02:17.757Z,17.00
2022-07-29T22:04:19.909Z,16.90
2022-07-29T22:06:22.704Z,16.90
2022-07-29T22:08:27.679Z,16.90
2022-07-29T22:10:30.744Z,16.90
2022-07-29T22:12:33.087Z,16.90
2022-07-29T22:14:35.082Z,16.80
2022-07-29T22:16:37.190Z,16.80
2022-07-29T22:18:39.303Z,16.70
2022-07-29T22:20:41.298Z,16.70
2022-07-29T22:22:43.927Z,16.60
2022-07-29T22:24:46.443Z,16.60
2022-07-29T22:26:48.472Z,16.50
2022-07-29T22:28:50.454Z,16.50
2022-07-29T22:30:52.525Z,16.40
2022-07-29T22:32:54.540Z,16.40
2022-07-29T22:34:56.546Z,16.40
2022-07-29T22:36:59.584Z,16.30
2022-07-29T22:39:02.412Z,16.30
2022-07-29T22:41:04.492Z,16.20
2022-07-29T22:43:06.788Z,16.20
2022-07-29T22:45:10.402Z,16.20
2022-07-29T22:47:12.427Z,16.10
2022-07-29T22:49:14.581Z,16.10
2022-07-29T22:51:16.564Z,16.10
2022-07-29T22:53:19.369Z,16.00
2022-07-29T22:55:21.616Z,16.00
2022-07-29T22:57:23.743Z,16.00
2022-07-29T22:59:25.679Z,16.00
2022-07-29T23:01:37.308Z,16.30
2022-07-29T23:03:40.475Z,16.00
2022-07-29T23:05:52.982Z,16.10
2022-07-29T23:07:55.015Z,16.10
2022-07-29T23:09:57.002Z,16.10
2022-07-29T23:11:59.092Z,16.10
2022-07-29T23:14:01.161Z,15.90
2022-07-29T23:16:03.196Z,16.00
2022-07-29T23:18:05.267Z,15.90
2022-07-29T23:20:09.807Z,15.90
2022-07-29T23:22:12.172Z,15.80
2022-07-29T23:24:14.218Z,15.90
2022-07-29T23:26:17.149Z,15.90
2022-07-29T23:28:19.236Z,15.90
2022-07-29T23:30:21.290Z,15.90
2022-07-29T23:32:23.352Z,16.30
2022-07-29T23:34:25.375Z,15.90
2022-07-29T23:36:27.546Z,15.80
2022-07-29T23:38:29.692Z,15.80
2022-07-29T23:40:31.913Z,15.70
2022-07-29T23:42:33.982Z,15.70
2022-07-29T23:44:36.176Z,15.70
2022-07-29T23:46:38.417Z,15.70
2022-07-29T23:48:40.799Z,15.70
2022-07-29T23:50:42.973Z,15.70
2022-07-29T23:52:45.181Z,15.70
2022-07-29T23:54:48.120Z,15.70
2022-07-29T23:56:50.176Z,15.60
2022-07-29T23:58:52.227Z,15.60
